createdAt,value
2019-02-16T00:00:10.003Z,85.00
2019-02-16T00:03:23.497Z,84.84
2019-02-16T00:06:36.962Z,84.86
2019-02-16T00:09:50.441Z,84.65
2019-02-16T00:13:04.012Z,85.07
2019-02-16T00:16:17.824Z,84.84
2019-02-16T00:19:31.329Z,84.63
2019-02-16T00:22:44.920Z,84.58
2019-02-16T00:25:58.903Z,84.10
2019-02-16T00:29:12.379Z,84.10
2019-02-16T00:32:25.861Z,83.91
2019-02-16T00:35:39.325Z,83.69
2019-02-16T00:38:54.254Z,84.05
2019-02-16T00:42:07.896Z,84.55
2019-02-16T00:45:21.388Z,84.92
2019-02-16T00:48:34.848Z,84.84
2019-02-16T00:51:48.597Z,85.16
2019-02-16T00:55:02.226Z,85.15
2019-02-16T00:58:15.696Z,85.45
2019-02-16T01:01:29.181Z,85.20
2019-02-16T01:04:42.666Z,84.83
2019-02-16T01:07:56.555Z,84.47
2019-02-16T01:11:10.035Z,84.10
2019-02-16T01:14:23.512Z,83.87
2019-02-16T01:17:36.998Z,83.61
2019-02-16T01:20:50.493Z,83.40
2019-02-16T01:24:04.192Z,83.28
2019-02-16T01:27:17.689Z,83.34
2019-02-16T01:30:31.184Z,83.20
2019-02-16T01:33:45.618Z,83.19
2019-02-16T01:36:59.343Z,83.23
2019-02-16T01:40:12.841Z,84.18
2019-02-16T01:43:26.355Z,84.73
2019-02-16T01:46:39.843Z,84.89
2019-02-16T01:49:53.319Z,85.19
2019-02-16T01:53:07.139Z,85.13
2019-02-16T01:56:20.625Z,85.24
2019-02-16T01:59:34.123Z,85.26
2019-02-16T02:02:47.714Z,85.04
2019-02-16T02:06:01.299Z,84.85
2019-02-16T02:09:15.107Z,84.83
2019-02-16T02:12:28.587Z,85.16
2019-02-16T02:15:42.332Z,85.18
2019-02-16T02:18:55.827Z,85.00
2019-02-16T02:22:09.325Z,84.55
2019-02-16T02:25:22.800Z,84.48
2019-02-16T02:28:36.680Z,84.81
2019-02-16T02:31:50.167Z,85.01
2019-02-16T02:35:04.177Z,84.88
2019-02-16T02:38:17.665Z,85.13
2019-02-16T02:41:31.766Z,85.34
2019-02-16T02:44:45.566Z,85.51
2019-02-16T02:47:59.383Z,85.18
2019-02-16T02:51:13.509Z,84.73
2019-02-16T02:54:27.109Z,85.03
2019-02-16T02:57:40.587Z,85.50
2019-02-16T03:00:54.355Z,85.88
2019-02-16T03:04:07.847Z,85.62
2019-02-16T03:07:21.840Z,86.45
2019-02-16T03:10:35.309Z,86.12
2019-02-16T03:13:49.079Z,85.77
2019-02-16T03:17:02.821Z,85.94
2019-02-16T03:20:16.610Z,85.88
2019-02-16T03:23:30.517Z,86.05
2019-02-16T03:27:20.673Z,85.96
2019-02-16T03:31:03.100Z,85.74
2019-02-16T03:34:20.680Z,85.66
2019-02-16T03:38:07.640Z,85.78
2019-02-16T03:41:21.121Z,85.77
2019-02-16T03:44:34.900Z,85.35
2019-02-16T03:47:48.503Z,85.54
2019-02-16T03:51:01.985Z,85.56
2019-02-16T03:54:15.842Z,85.56
2019-02-16T03:57:29.443Z,85.43
2019-02-16T04:00:42.920Z,85.71
2019-02-16T04:03:56.413Z,86.09
2019-02-16T04:07:09.897Z,86.15
2019-02-16T04:10:23.374Z,86.88
2019-02-16T04:13:36.856Z,87.24
2019-02-16T04:16:50.348Z,86.99
2019-02-16T04:20:04.931Z,86.49
2019-02-16T04:23:18.649Z,86.25
2019-02-16T04:26:32.356Z,85.92
2019-02-16T04:29:45.836Z,85.67
2019-02-16T04:32:59.306Z,86.20
2019-02-16T04:36:12.784Z,86.12
2019-02-16T04:39:26.260Z,85.94
2019-02-16T04:42:39.851Z,85.36
2019-02-16T04:45:53.335Z,85.38
2019-02-16T04:49:06.825Z,84.92
2019-02-16T04:52:20.296Z,85.95
2019-02-16T04:55:33.827Z,85.74
2019-02-16T04:58:47.406Z,85.74
2019-02-16T05:02:01.187Z,85.15
2019-02-16T05:05:14.683Z,85.16
2019-02-16T05:08:28.163Z,85.22
2019-02-16T05:11:41.759Z,85.01
2019-02-16T05:14:55.235Z,85.50
2019-02-16T05:18:08.712Z,85.56
2019-02-16T05:21:22.202Z,85.49
2019-02-16T05:24:35.681Z,85.46
2019-02-16T05:27:49.167Z,84.73
2019-02-16T05:31:02.759Z,84.85
2019-02-16T05:34:16.336Z,84.86
2019-02-16T05:37:30.592Z,85.00
2019-02-16T05:40:44.176Z,85.25
2019-02-16T05:43:57.981Z,85.10
2019-02-16T05:47:11.563Z,84.89
2019-02-16T05:50:25.042Z,84.25
2019-02-16T05:53:38.535Z,84.58
2019-02-16T05:56:52.024Z,84.49
2019-02-16T06:00:07.085Z,84.90
2019-02-16T06:03:20.568Z,85.18
2019-02-16T06:06:34.057Z,85.21
2019-02-16T06:09:47.633Z,85.27
2019-02-16T06:13:01.122Z,85.52
2019-02-16T06:16:14.594Z,85.41
2019-02-16T06:19:28.080Z,85.30
2019-02-16T06:22:41.831Z,85.04
2019-02-16T06:25:55.296Z,84.95
2019-02-16T06:29:08.780Z,84.86
2019-02-16T06:32:22.268Z,84.58
2019-02-16T06:36:04.445Z,84.39
2019-02-16T06:39:18.235Z,84.94
2019-02-16T06:42:31.731Z,85.47
2019-02-16T06:45:45.191Z,85.18
2019-02-16T06:48:59.131Z,85.15
2019-02-16T06:52:12.704Z,85.17
2019-02-16T06:55:33.842Z,84.81
2019-02-16T06:58:47.592Z,84.76
2019-02-16T07:02:01.170Z,84.66
2019-02-16T07:05:14.663Z,84.74
2019-02-16T07:08:28.144Z,84.52
2019-02-16T07:11:41.618Z,84.67
2019-02-16T07:14:55.118Z,84.56
2019-02-16T07:18:22.188Z,84.69
2019-02-16T07:21:35.663Z,84.67
2019-02-16T07:24:49.162Z,84.55
2019-02-16T07:28:02.887Z,84.59
2019-02-16T07:31:16.381Z,85.11
2019-02-16T07:34:29.948Z,85.00
2019-02-16T07:37:43.521Z,84.98
2019-02-16T07:40:57.022Z,85.14
2019-02-16T07:44:22.084Z,85.18
2019-02-16T07:47:55.238Z,85.24
2019-02-16T07:51:15.067Z,85.25
2019-02-16T07:54:37.747Z,85.36
2019-02-16T07:58:13.437Z,85.23
2019-02-16T08:01:39.394Z,85.44
2019-02-16T08:05:01.774Z,85.63
2019-02-16T08:08:21.590Z,85.55
2019-02-16T08:11:41.806Z,85.52
2019-02-16T08:15:01.239Z,85.34
2019-02-16T08:18:43.499Z,85.36
2019-02-16T08:22:15.520Z,85.39
2019-02-16T08:25:51.804Z,85.41
2019-02-16T08:29:14.603Z,85.16
2019-02-16T08:32:47.028Z,84.90
2019-02-16T08:36:09.878Z,84.79
2019-02-16T08:39:45.723Z,84.54
2019-02-16T08:43:16.598Z,84.21
2019-02-16T08:46:48.607Z,84.07
2019-02-16T08:50:17.177Z,84.00
2019-02-16T08:53:55.933Z,83.68
2019-02-16T08:57:24.219Z,83.26
2019-02-16T09:00:56.265Z,82.71
2019-02-16T09:04:24.894Z,82.33
2019-02-16T09:07:49.878Z,81.65
2019-02-16T09:11:15.767Z,80.92
2019-02-16T09:14:48.892Z,79.95
2019-02-16T09:18:10.524Z,78.95
2019-02-16T09:21:56.231Z,78.64
2019-02-16T09:25:17.335Z,78.46
2019-02-16T09:28:48.946Z,78.05
2019-02-16T09:32:30.731Z,77.24
2019-02-16T09:35:55.698Z,76.25
2019-02-16T09:39:31.542Z,75.69
2019-02-16T09:42:50.663Z,74.98
2019-02-16T09:46:23.799Z,74.90
2019-02-16T09:49:57.047Z,73.78
2019-02-16T09:53:23.390Z,74.88
2019-02-16T09:56:56.533Z,73.50
2019-02-16T10:00:32.470Z,72.45
2019-02-16T10:04:08.607Z,71.41
2019-02-16T10:07:41.760Z,69.98
2019-02-16T10:11:13.890Z,69.18
2019-02-16T10:14:34.367Z,69.43
2019-02-16T10:18:06.991Z,67.82
2019-02-16T10:21:39.111Z,66.78
2019-02-16T10:25:05.860Z,66.95
2019-02-16T10:28:37.471Z,64.07
2019-02-16T10:32:08.584Z,62.77
2019-02-16T10:35:40.231Z,63.84
2019-02-16T10:39:13.068Z,61.72
2019-02-16T10:42:50.409Z,61.04
2019-02-16T10:46:26.384Z,60.25
2019-02-16T10:49:58.608Z,55.91
2019-02-16T10:53:29.604Z,56.08
2019-02-16T10:57:08.349Z,55.23
2019-02-16T11:00:40.108Z,54.56
2019-02-16T11:04:03.127Z,54.49
2019-02-16T11:07:36.265Z,52.01
2019-02-16T11:11:01.589Z,50.15
2019-02-16T11:14:40.995Z,49.27
2019-02-16T11:18:21.601Z,47.33
2019-02-16T11:22:04.559Z,47.15
2019-02-16T11:25:31.514Z,46.98
2019-02-16T11:29:17.332Z,46.31
2019-02-16T11:32:56.257Z,45.54
2019-02-16T11:36:21.846Z,45.50
2019-02-16T11:39:51.511Z,44.59
2019-02-16T11:43:41.131Z,45.90
2019-02-16T11:47:16.781Z,45.81
2019-02-16T11:50:45.554Z,45.45
2019-02-16T11:54:18.979Z,43.31
2019-02-16T11:57:47.755Z,42.58
2019-02-16T12:01:29.830Z,42.72
2019-02-16T12:04:53.346Z,42.65
2019-02-16T12:08:11.633Z,40.44
2019-02-16T12:11:42.366Z,39.39
2019-02-16T12:15:10.305Z,39.69
2019-02-16T12:18:35.398Z,38.60
2019-02-16T12:22:07.307Z,37.68
2019-02-16T12:25:46.486Z,36.61
2019-02-16T12:29:19.620Z,35.18
2019-02-16T12:33:07.927Z,34.07
2019-02-16T12:36:39.767Z,34.07
2019-02-16T12:40:03.956Z,34.41
2019-02-16T12:43:35.577Z,35.78
2019-02-16T12:47:09.162Z,36.85
2019-02-16T12:50:34.023Z,35.90
2019-02-16T12:54:02.072Z,37.58
2019-02-16T12:57:25.625Z,36.65
2019-02-16T13:00:55.898Z,38.47
2019-02-16T13:04:27.515Z,37.72
2019-02-16T13:08:00.994Z,38.15
2019-02-16T13:11:28.857Z,38.88
2019-02-16T13:14:58.167Z,37.13
2019-02-16T13:18:19.203Z,37.29
2019-02-16T13:21:52.351Z,36.44
2019-02-16T13:25:24.094Z,36.88
2019-02-16T13:29:11.408Z,37.50
2019-02-16T13:32:43.419Z,37.04
2019-02-16T13:36:04.879Z,37.25
2019-02-16T13:39:38.034Z,37.56
2019-02-16T13:42:59.137Z,37.20
2019-02-16T13:46:32.392Z,38.65
2019-02-16T13:49:52.564Z,38.79
2019-02-16T13:53:28.717Z,39.68
2019-02-16T13:56:58.077Z,39.32
2019-02-16T14:00:43.676Z,39.89
2019-02-16T14:04:24.419Z,39.92
2019-02-16T14:07:49.708Z,40.29
2019-02-16T14:11:21.511Z,40.75
2019-02-16T14:15:03.383Z,40.57
2019-02-16T14:18:17.203Z,40.27
2019-02-16T14:21:30.790Z,40.81
2019-02-16T14:24:47.363Z,40.95
2019-02-16T14:28:01.190Z,41.03
2019-02-16T14:31:17.854Z,41.37
2019-02-16T14:34:31.436Z,41.50
2019-02-16T14:37:50.553Z,41.44
2019-02-16T14:41:04.805Z,42.02
2019-02-16T14:44:18.613Z,41.63
2019-02-16T14:47:32.112Z,42.45
2019-02-16T14:50:45.751Z,43.10
2019-02-16T14:54:00.485Z,44.00
2019-02-16T14:57:13.981Z,45.18
2019-02-16T15:00:27.808Z,46.90
2019-02-16T15:03:41.281Z,48.40
2019-02-16T15:06:55.043Z,50.48
2019-02-16T15:10:09.105Z,51.87
2019-02-16T15:13:22.897Z,52.79
2019-02-16T15:16:36.385Z,53.23
2019-02-16T15:19:50.040Z,53.96
2019-02-16T15:23:04.133Z,54.70
2019-02-16T15:26:17.830Z,55.70
2019-02-16T15:29:31.300Z,56.77
2019-02-16T15:32:46.307Z,56.52
2019-02-16T15:36:00.232Z,57.46
2019-02-16T15:39:13.671Z,57.73
2019-02-16T15:42:27.140Z,58.45
2019-02-16T15:45:41.159Z,58.20
2019-02-16T15:48:54.720Z,58.48
2019-02-16T15:52:08.698Z,58.42
2019-02-16T15:55:22.868Z,58.52
2019-02-16T15:58:36.751Z,58.55
2019-02-16T16:01:50.763Z,59.27
2019-02-16T16:05:05.172Z,61.57
2019-02-16T16:08:39.186Z,61.70
2019-02-16T16:12:13.054Z,63.70
2019-02-16T16:15:42.318Z,65.48
2019-02-16T16:19:05.365Z,65.17
2019-02-16T16:22:27.694Z,64.98
2019-02-16T16:25:52.031Z,65.54
2019-02-16T16:29:37.399Z,65.71
2019-02-16T16:33:03.318Z,66.07
2019-02-16T16:36:33.954Z,66.71
2019-02-16T16:39:55.195Z,67.71
2019-02-16T16:43:20.852Z,67.89
2019-02-16T16:46:52.494Z,67.88
2019-02-16T16:50:18.763Z,67.79
2019-02-16T16:53:49.021Z,68.21
2019-02-16T16:57:22.560Z,68.49
2019-02-16T17:01:05.115Z,69.23
2019-02-16T17:04:24.252Z,69.87
2019-02-16T17:07:47.281Z,70.96
2019-02-16T17:11:18.856Z,70.87
2019-02-16T17:14:38.848Z,71.31
2019-02-16T17:18:11.997Z,71.85
2019-02-16T17:21:51.395Z,72.21
2019-02-16T17:25:24.765Z,72.65
2019-02-16T17:28:52.325Z,73.76
2019-02-16T17:32:13.808Z,73.62
2019-02-16T17:35:46.970Z,73.33
2019-02-16T17:39:18.547Z,73.97
2019-02-16T17:42:51.682Z,75.27
2019-02-16T17:46:24.406Z,76.11
2019-02-16T17:49:47.231Z,76.42
2019-02-16T17:53:10.068Z,76.35
2019-02-16T17:56:46.826Z,76.39
2019-02-16T18:00:03.995Z,77.36
2019-02-16T18:03:36.425Z,77.39
2019-02-16T18:07:01.800Z,78.50
2019-02-16T18:10:28.240Z,78.86
2019-02-16T18:14:01.794Z,79.83
2019-02-16T18:17:34.123Z,80.44
2019-02-16T18:21:05.669Z,80.69
2019-02-16T18:24:35.979Z,80.64
2019-02-16T18:28:16.967Z,80.62
2019-02-16T18:31:55.929Z,81.32
2019-02-16T18:35:27.503Z,81.58
2019-02-16T18:39:06.263Z,81.76
2019-02-16T18:42:38.319Z,81.65
2019-02-16T18:46:26.450Z,82.12
2019-02-16T18:50:01.115Z,81.85
2019-02-16T18:53:25.816Z,82.05
2019-02-16T18:57:06.365Z,82.19
2019-02-16T19:00:39.733Z,82.27
2019-02-16T19:04:24.533Z,82.58
2019-02-16T19:08:00.511Z,82.78
2019-02-16T19:11:25.725Z,82.88
2019-02-16T19:14:57.540Z,82.63
2019-02-16T19:18:18.799Z,82.92
2019-02-16T19:21:54.706Z,83.14
2019-02-16T19:25:15.107Z,83.04
2019-02-16T19:28:51.094Z,82.63
2019-02-16T19:32:24.244Z,82.31
2019-02-16T19:36:12.864Z,82.59
2019-02-16T19:39:34.071Z,82.54
2019-02-16T19:42:56.276Z,82.87
2019-02-16T19:46:23.017Z,83.26
2019-02-16T19:49:57.294Z,84.02
2019-02-16T19:53:36.313Z,84.06
2019-02-16T19:57:09.489Z,83.96
2019-02-16T20:00:41.372Z,83.83
2019-02-16T20:04:14.512Z,83.84
2019-02-16T20:07:56.584Z,83.70
2019-02-16T20:11:35.358Z,83.88
2019-02-16T20:15:08.481Z,84.02
2019-02-16T20:18:31.465Z,84.37
2019-02-16T20:21:59.005Z,83.96
2019-02-16T20:25:22.215Z,83.90
2019-02-16T20:29:13.874Z,83.81
2019-02-16T20:32:52.951Z,83.98
2019-02-16T20:36:25.056Z,84.04
2019-02-16T20:40:04.069Z,84.31
2019-02-16T20:43:26.440Z,83.95
2019-02-16T20:46:50.149Z,84.18
2019-02-16T20:50:26.493Z,84.12
2019-02-16T20:53:49.029Z,84.68
2019-02-16T20:57:15.463Z,85.14
2019-02-16T21:00:47.506Z,85.27
2019-02-16T21:04:12.061Z,85.27
2019-02-16T21:07:37.302Z,85.15
2019-02-16T21:11:20.089Z,85.03
2019-02-16T21:15:08.084Z,84.98
2019-02-16T21:18:36.649Z,84.91
2019-02-16T21:22:16.155Z,85.00
2019-02-16T21:25:52.783Z,84.99
2019-02-16T21:29:33.004Z,84.77
2019-02-16T21:33:09.285Z,84.73
2019-02-16T21:36:30.190Z,84.58
2019-02-16T21:39:54.782Z,84.49
2019-02-16T21:43:37.316Z,85.00
2019-02-16T21:47:19.412Z,85.15
2019-02-16T21:51:04.814Z,84.86
2019-02-16T21:54:24.617Z,84.95
2019-02-16T21:58:08.155Z,84.78
2019-02-16T22:01:28.872Z,85.24
2019-02-16T22:05:17.319Z,85.64
2019-02-16T22:08:50.475Z,85.77
2019-02-16T22:12:33.070Z,85.51
2019-02-16T22:15:46.463Z,86.10
2019-02-16T22:18:59.924Z,85.85
2019-02-16T22:22:13.791Z,85.35
2019-02-16T22:25:27.370Z,85.51
2019-02-16T22:28:40.832Z,85.59
2019-02-16T22:31:54.307Z,85.95
2019-02-16T22:35:08.714Z,86.02
2019-02-16T22:38:22.184Z,85.85
2019-02-16T22:41:35.792Z,86.32
2019-02-16T22:44:49.256Z,85.97
2019-02-16T22:48:03.465Z,85.90
2019-02-16T22:51:16.970Z,86.04
2019-02-16T22:54:30.414Z,86.08
2019-02-16T22:57:44.001Z,86.05
2019-02-16T23:00:57.570Z,86.38
2019-02-16T23:04:11.036Z,86.62
2019-02-16T23:07:24.624Z,86.55
2019-02-16T23:10:38.655Z,86.55
2019-02-16T23:13:52.324Z,86.42
2019-02-16T23:17:06.260Z,86.34
2019-02-16T23:20:19.738Z,86.31
2019-02-16T23:23:33.311Z,86.65
2019-02-16T23:26:46.894Z,86.37
2019-02-16T23:30:00.465Z,86.93
2019-02-16T23:33:14.163Z,86.88
2019-02-16T23:36:27.646Z,86.94
2019-02-16T23:39:41.117Z,87.00
2019-02-16T23:42:54.584Z,86.78
2019-02-16T23:46:08.052Z,86.46
2019-02-16T23:49:21.965Z,86.48
2019-02-16T23:52:35.641Z,86.40
2019-02-16T23:55:49.100Z,86.70
2019-02-16T23:59:02.677Z,86.52
